Meteo Giornale » Osservazioni meteo Stati Uniti (USA) » Cincinnati Lunken Fld
ore: 12:53 - Osservazioni Meteo Cincinnati Lunken Fld
Lat. 39° 6' N Lon. 84° 24' W Alt. 147 metri s.l.m.
33 °C
Sereno
Temp. 24 Ore
21 °C
34 °C
Nord
9.3 Km/h
Dew point 21 °C
Umidità 49 %
Visibilità 10 Km
Il sole sorge alle ore 07:06
Il sole tramonta alle ore 20:08
| Data e Ora | Cielo e Fenomeni | T °C | DP °C | Um. % | Pres. hPa | Vis. km | Vento km/h | |
|---|---|---|---|---|---|---|---|---|
| Oggi h: 12:53 | Sereno | 33 | 21 | 49 | 1018 | 10 | N 9.3 | |
| Oggi h: 11:53 | Sereno | 32 | 22 | 55 | 1019 | 10 | O 20.3 | |
| Oggi h: 10:53 | Sereno | 31 | 22 | 58 | 1019 | 10 | O/SO 14.8 | |
| Oggi h: 09:53 | Sereno | 28 | 22 | 69 | 1019 | 10 | N 0 | |
| Oggi h: 08:53 | Sereno | 24 | 22 | 88 | 1019 | 10 | N 0 | |
| Oggi h: 07:53 | Sereno | 21 | 21 | 100 | 1019 | 10 | S/SO 7.4 | |
| Oggi h: 06:53 | Foschia | 21 | 21 | 100 | 1018 | 10 | N 0 | |
| Oggi h: 06:35 | Foschia | 21 | 21 | 100 | 1018 | 10 | N 0 | |
| Oggi h: 06:26 | Foschia | 21 | 21 | 100 | 1018 | 2 | N 0 | |
| Oggi h: 06:11 | Foschia | 21 | 21 | 100 | 1018 | 8 | N 0 | |
| Oggi h: 06:02 | Foschia | 22 | 22 | 100 | 1018 | 3 | N 0 | |
| Oggi h: 05:53 | Foschia | 22 | 22 | 100 | 1018 | 5 | N 0 | |
| Oggi h: 05:48 | Foschia | 22 | 22 | 100 | 1018 | 2 | N 0 | |
| Oggi h: 04:53 | Foschia | 22 | 21 | 94 | 1018 | 10 | N 0 | |
| Oggi h: 04:36 | Foschia | 22 | 22 | 100 | 1017 | 6 | N 0 | |
| Oggi h: 04:26 | Foschia | 22 | 22 | 100 | 1017 | 5 | N 0 | |
| Oggi h: 03:53 | Sereno | 23 | 22 | 94 | 1017 | 13 | N 0 | |
| Oggi h: 02:53 | Sereno | 24 | 22 | 88 | 1017 | 10 | N 0 | |
| Oggi h: 01:53 | Sereno | 23 | 22 | 94 | 1017 | 14 | N 5.5 | |
| Oggi h: 00:53 | Sereno | 23 | 22 | 94 | 1018 | 11 | N 5.5 | |
| Ieri h: 23:53 | Sereno | 24 | 23 | 94 | 1018 | 13 | N 0 | |
| Ieri h: 22:53 | Sereno | 24 | 23 | 94 | 1018 | 10 | N 0 | |
| Ieri h: 21:53 | Sereno | 24 | 23 | 94 | 1018 | 10 | N 0 | |
| Ieri h: 20:53 | Sereno | 26 | 23 | 83 | 1017 | 10 | N 0 | |
| Ieri h: 19:53 | Poco Nuvoloso | 29 | 22 | 66 | 1016 | 10 | S/SO 11.1 | |
| Ieri h: 18:53 | Poco Nuvoloso | 32 | 21 | 52 | 1016 | 10 | S/SO 16.7 | |
| Ieri h: 17:53 | Poco Nuvoloso | 33 | 21 | 49 | 1017 | 10 | O/SO 16.7 | |
| Ieri h: 16:53 | Molto Nuvoloso | 34 | 21 | 46 | 1017 | 10 | SO 16.7 | |
| Ieri h: 15:53 | Molto Nuvoloso | 34 | 19 | 41 | 1018 | 10 | O/SO 14.8 | |
| Ieri h: 14:53 | Poco Nuvoloso | 34 | 21 | 46 | 1018 | 10 | O/SO 16.7 | |
| Ieri h: 13:53 | Nuvoloso | 33 | 22 | 52 | 1019 | 10 | O/SO 18.5 | |



